createdAt,value
2023-01-19T00:00:19.885Z,99179.25
2023-01-19T00:03:15.289Z,99191.14
2023-01-19T00:05:43.122Z,99196.47
2023-01-19T00:08:17.029Z,99196.08
2023-01-19T00:10:46.139Z,99202.03
2023-01-19T00:13:13.144Z,99203.80
2023-01-19T00:15:39.445Z,99206.61
2023-01-19T00:18:05.990Z,99200.66
2023-01-19T00:20:34.696Z,99196.61
2023-01-19T00:23:02.930Z,99200.40
2023-01-19T00:25:29.927Z,99204.42
2023-01-19T00:27:57.136Z,99207.81
2023-01-19T00:30:24.106Z,99215.11
2023-01-19T00:32:50.756Z,99218.33
2023-01-19T00:35:17.113Z,99223.91
2023-01-19T00:37:46.283Z,99230.83
2023-01-19T00:40:13.332Z,99241.10
2023-01-19T00:42:39.656Z,99235.65
2023-01-19T00:45:24.178Z,99239.71
2023-01-19T00:47:56.386Z,99232.05
2023-01-19T00:50:24.795Z,99230.64
2023-01-19T00:52:52.389Z,99229.44
2023-01-19T00:55:18.912Z,99235.36
2023-01-19T00:57:45.430Z,99233.48
2023-01-19T01:00:15.825Z,99231.20
2023-01-19T01:02:44.039Z,99229.73
2023-01-19T01:05:11.717Z,99228.13
2023-01-19T01:07:40.665Z,99229.48
2023-01-19T01:10:26.365Z,99231.14
2023-01-19T01:12:53.657Z,99230.67
2023-01-19T01:15:25.706Z,99223.79
2023-01-19T01:17:52.484Z,99222.84
2023-01-19T01:20:22.329Z,99222.83
2023-01-19T01:22:51.113Z,99221.20
2023-01-19T01:25:21.837Z,99217.56
2023-01-19T01:27:48.890Z,99218.17
2023-01-19T01:30:16.033Z,99218.33
2023-01-19T01:32:42.484Z,99211.03
2023-01-19T01:35:09.915Z,99209.92
2023-01-19T01:37:37.453Z,99207.73
2023-01-19T01:40:05.644Z,99209.27
2023-01-19T01:42:34.042Z,99208.61
2023-01-19T01:45:05.403Z,99212.48
2023-01-19T01:47:41.009Z,99210.67
2023-01-19T01:50:13.269Z,99208.38
2023-01-19T01:53:06.572Z,99206.52
2023-01-19T01:55:33.834Z,99208.58
2023-01-19T01:58:04.259Z,99212.73
2023-01-19T02:00:53.570Z,99209.81
2023-01-19T02:03:22.727Z,99213.52
2023-01-19T02:05:49.675Z,99217.90
2023-01-19T02:08:47.388Z,99217.03
2023-01-19T02:11:32.577Z,99218.24
2023-01-19T02:13:58.921Z,99216.68
2023-01-19T02:16:25.422Z,99217.66
2023-01-19T02:18:51.864Z,99215.76
2023-01-19T02:21:42.761Z,99213.43
2023-01-19T02:24:10.309Z,99213.34
2023-01-19T02:26:40.066Z,99217.80
2023-01-19T02:29:15.015Z,99220.89
2023-01-19T02:31:42.094Z,99220.67
2023-01-19T02:34:12.452Z,99222.02
2023-01-19T02:37:01.493Z,99225.93
2023-01-19T02:39:34.411Z,99227.90
2023-01-19T02:42:05.715Z,99221.55
2023-01-19T02:44:34.314Z,99217.86
2023-01-19T02:47:00.625Z,99213.19
2023-01-19T02:49:28.275Z,99210.23
2023-01-19T02:51:54.815Z,99201.31
2023-01-19T02:54:44.528Z,99200.90
2023-01-19T02:57:26.643Z,99199.48
2023-01-19T02:59:52.803Z,99200.77
2023-01-19T03:02:34.164Z,99205.79
2023-01-19T03:05:33.576Z,99203.44
2023-01-19T03:08:10.044Z,99201.19
2023-01-19T03:10:45.340Z,99200.02
2023-01-19T03:13:29.409Z,99197.33
2023-01-19T03:16:03.150Z,99207.52
2023-01-19T03:18:33.175Z,99217.27
2023-01-19T03:21:04.643Z,99225.25
2023-01-19T03:23:34.066Z,99231.05
2023-01-19T03:26:02.273Z,99232.07
2023-01-19T03:28:29.677Z,99234.64
2023-01-19T03:31:02.378Z,99235.52
2023-01-19T03:33:32.718Z,99239.06
2023-01-19T03:36:15.946Z,99239.52
2023-01-19T03:38:44.175Z,99246.48
2023-01-19T03:41:16.092Z,99244.61
2023-01-19T03:43:43.849Z,99251.85
2023-01-19T03:46:11.523Z,99256.79
2023-01-19T03:48:39.331Z,99258.69
2023-01-19T03:51:08.438Z,99264.09
2023-01-19T03:53:35.020Z,99263.55
2023-01-19T03:56:01.809Z,99257.83
2023-01-19T03:58:28.368Z,99257.20
2023-01-19T04:00:54.805Z,99256.75
2023-01-19T04:03:21.182Z,99252.64
2023-01-19T04:05:47.563Z,99256.77
2023-01-19T04:08:14.014Z,99260.58
2023-01-19T04:10:40.337Z,99262.20
2023-01-19T04:13:06.689Z,99268.35
2023-01-19T04:15:33.175Z,99271.69
2023-01-19T04:18:00.449Z,99270.96
2023-01-19T04:20:27.666Z,99273.34
2023-01-19T04:22:59.339Z,99280.44
2023-01-19T04:25:26.897Z,99287.95
2023-01-19T04:27:54.509Z,99290.67
2023-01-19T04:30:21.929Z,99287.21
2023-01-19T04:32:48.243Z,99287.77
2023-01-19T04:35:14.665Z,99294.07
2023-01-19T04:37:40.921Z,99294.33
2023-01-19T04:40:08.269Z,99298.25
2023-01-19T04:42:34.643Z,99306.63
2023-01-19T04:45:01.119Z,99309.37
2023-01-19T04:47:27.417Z,99315.91
2023-01-19T04:49:53.745Z,99323.73
2023-01-19T04:52:20.083Z,99326.46
2023-01-19T04:54:46.984Z,99327.57
2023-01-19T04:57:13.331Z,99321.68
2023-01-19T04:59:39.649Z,99323.77
2023-01-19T05:02:06.004Z,99320.92
2023-01-19T05:04:32.321Z,99319.17
2023-01-19T05:06:58.917Z,99321.77
2023-01-19T05:09:26.450Z,99332.26
2023-01-19T05:11:52.730Z,99336.77
2023-01-19T05:14:19.222Z,99338.59
2023-01-19T05:16:45.515Z,99341.76
2023-01-19T05:19:12.256Z,99338.10
2023-01-19T05:21:38.726Z,99339.03
2023-01-19T05:24:05.421Z,99337.16
2023-01-19T05:26:31.683Z,99338.30
2023-01-19T05:28:57.982Z,99349.73
2023-01-19T05:31:24.399Z,99359.95
2023-01-19T05:33:50.848Z,99364.83
2023-01-19T05:36:17.139Z,99370.45
2023-01-19T05:38:43.492Z,99362.32
2023-01-19T05:41:09.935Z,99356.77
2023-01-19T05:43:36.208Z,99350.09
2023-01-19T05:46:04.723Z,99349.30
2023-01-19T05:48:31.000Z,99343.78
2023-01-19T05:50:59.018Z,99340.52
2023-01-19T05:53:25.740Z,99346.66
2023-01-19T05:55:51.986Z,99360.41
2023-01-19T05:58:18.350Z,99367.18
2023-01-19T06:00:44.611Z,99371.80
2023-01-19T06:03:11.176Z,99375.34
2023-01-19T06:05:38.768Z,99368.56
2023-01-19T06:08:05.542Z,99370.62
2023-01-19T06:10:31.847Z,99380.39
2023-01-19T06:12:58.921Z,99387.89
2023-01-19T06:15:25.634Z,99403.34
2023-01-19T06:17:51.908Z,99407.48
2023-01-19T06:20:18.180Z,99415.75
2023-01-19T06:22:44.466Z,99421.77
2023-01-19T06:25:11.354Z,99424.68
2023-01-19T06:27:39.117Z,99427.11
2023-01-19T06:30:05.936Z,99426.35
2023-01-19T06:32:32.324Z,99431.64
2023-01-19T06:34:58.598Z,99436.25
2023-01-19T06:37:26.555Z,99438.52
2023-01-19T06:39:52.857Z,99444.63
2023-01-19T06:42:19.156Z,99451.60
2023-01-19T06:44:47.348Z,99451.80
2023-01-19T06:47:16.396Z,99453.24
2023-01-19T06:49:43.164Z,99457.89
2023-01-19T06:52:19.964Z,99457.29
2023-01-19T06:54:46.305Z,99456.23
2023-01-19T06:57:13.617Z,99455.41
2023-01-19T06:59:40.323Z,99452.23
2023-01-19T07:02:26.165Z,99449.67
2023-01-19T07:04:52.906Z,99450.39
2023-01-19T07:07:19.230Z,99445.86
2023-01-19T07:09:45.664Z,99436.81
2023-01-19T07:12:12.061Z,99439.95
2023-01-19T07:14:38.329Z,99434.25
2023-01-19T07:17:04.692Z,99436.42
2023-01-19T07:19:30.974Z,99439.19
2023-01-19T07:21:57.310Z,99445.98
2023-01-19T07:24:23.639Z,99445.48
2023-01-19T07:26:49.892Z,99440.33
2023-01-19T07:29:16.142Z,99441.19
2023-01-19T07:31:42.527Z,99442.27
2023-01-19T07:34:09.367Z,99443.92
2023-01-19T07:36:36.602Z,99448.91
2023-01-19T07:39:03.103Z,99449.60
2023-01-19T07:41:29.379Z,99454.31
2023-01-19T07:43:55.655Z,99456.27
2023-01-19T07:46:22.097Z,99461.84
2023-01-19T07:48:48.551Z,99470.76
2023-01-19T07:51:18.048Z,99480.41
2023-01-19T07:53:45.414Z,99486.66
2023-01-19T07:56:11.951Z,99494.35
2023-01-19T07:58:39.153Z,99494.88
2023-01-19T08:01:07.534Z,99493.92
2023-01-19T08:03:34.016Z,99493.64
2023-01-19T08:06:01.698Z,99496.91
2023-01-19T08:08:31.885Z,99491.00
2023-01-19T08:10:58.700Z,99484.13
2023-01-19T08:13:25.573Z,99481.09
2023-01-19T08:15:53.099Z,99475.86
2023-01-19T08:18:19.738Z,99474.21
2023-01-19T08:20:46.196Z,99476.49
2023-01-19T08:23:12.533Z,99473.79
2023-01-19T08:25:41.702Z,99462.30
2023-01-19T08:28:08.737Z,99460.03
2023-01-19T08:30:35.491Z,99458.86
2023-01-19T08:33:07.274Z,99462.51
2023-01-19T08:35:40.075Z,99463.11
2023-01-19T08:38:08.385Z,99454.66
2023-01-19T08:40:37.849Z,99457.28
2023-01-19T08:43:07.124Z,99453.52
2023-01-19T08:45:35.637Z,99453.38
2023-01-19T08:48:02.666Z,99451.75
2023-01-19T08:50:31.499Z,99457.70
2023-01-19T08:52:59.878Z,99470.98
2023-01-19T08:55:27.808Z,99480.91
2023-01-19T08:57:59.750Z,99486.00
2023-01-19T09:00:26.710Z,99482.92
2023-01-19T09:02:54.208Z,99482.27
2023-01-19T09:05:20.836Z,99478.23
2023-01-19T09:07:50.963Z,99481.15
2023-01-19T09:10:18.240Z,99488.27
2023-01-19T09:12:45.666Z,99484.71
2023-01-19T09:15:15.974Z,99481.02
2023-01-19T09:17:42.276Z,99472.36
2023-01-19T09:20:09.267Z,99481.42
2023-01-19T09:22:35.670Z,99493.80
2023-01-19T09:25:02.057Z,99501.85
2023-01-19T09:27:28.432Z,99502.17
2023-01-19T09:29:54.818Z,99505.56
2023-01-19T09:32:22.223Z,99503.51
2023-01-19T09:34:48.543Z,99503.22
2023-01-19T09:37:15.669Z,99510.29
2023-01-19T09:39:42.204Z,99515.14
2023-01-19T09:42:17.601Z,99510.70
2023-01-19T09:44:46.944Z,99504.42
2023-01-19T09:47:15.660Z,99495.71
2023-01-19T09:49:50.452Z,99489.16
2023-01-19T09:52:17.724Z,99489.79
2023-01-19T09:54:54.153Z,99493.92
2023-01-19T09:57:22.388Z,99492.78
2023-01-19T09:59:50.846Z,99491.06
2023-01-19T10:02:25.383Z,99489.35
2023-01-19T10:04:59.650Z,99485.86
2023-01-19T10:07:52.606Z,99478.27
2023-01-19T10:10:31.240Z,99484.40
2023-01-19T10:13:03.834Z,99482.33
2023-01-19T10:15:39.216Z,99479.13
2023-01-19T10:18:08.555Z,99474.52
2023-01-19T10:20:41.213Z,99475.14
2023-01-19T10:23:24.264Z,99471.81
2023-01-19T10:25:51.538Z,99473.89
2023-01-19T10:28:23.526Z,99467.84
2023-01-19T10:30:51.023Z,99459.23
2023-01-19T10:33:17.438Z,99458.92
2023-01-19T10:35:44.502Z,99451.00
2023-01-19T10:38:14.334Z,99448.09
2023-01-19T10:41:05.679Z,99452.40
2023-01-19T10:43:37.762Z,99453.81
2023-01-19T10:46:31.475Z,99452.17
2023-01-19T10:48:57.971Z,99459.77
2023-01-19T10:51:24.339Z,99460.55
2023-01-19T10:54:17.329Z,99459.30
2023-01-19T10:56:52.961Z,99458.96
2023-01-19T10:59:35.245Z,99463.61
2023-01-19T11:02:18.037Z,99465.63
2023-01-19T11:04:50.047Z,99466.66
2023-01-19T11:07:28.223Z,99474.29
2023-01-19T11:10:21.964Z,99475.67
2023-01-19T11:13:12.914Z,99468.80
2023-01-19T11:15:50.272Z,99464.68
2023-01-19T11:18:29.817Z,99459.96
2023-01-19T11:21:01.438Z,99456.57
2023-01-19T11:23:31.954Z,99455.58
2023-01-19T11:26:00.884Z,99446.88
2023-01-19T11:28:38.653Z,99437.25
2023-01-19T11:31:11.026Z,99433.20
2023-01-19T11:33:50.697Z,99432.50
2023-01-19T11:36:27.735Z,99434.02
2023-01-19T11:39:00.945Z,99433.69
2023-01-19T11:41:33.018Z,99432.00
2023-01-19T11:44:15.512Z,99423.90
2023-01-19T11:46:47.464Z,99419.59
2023-01-19T11:49:29.739Z,99421.05
2023-01-19T11:52:03.523Z,99423.90
2023-01-19T11:54:36.094Z,99431.86
2023-01-19T11:57:11.595Z,99432.02
2023-01-19T11:59:38.052Z,99425.76
2023-01-19T12:02:15.883Z,99423.05
2023-01-19T12:04:44.365Z,99425.38
2023-01-19T12:07:12.662Z,99420.92
2023-01-19T12:09:44.392Z,99418.56
2023-01-19T12:12:32.623Z,99421.36
2023-01-19T12:15:01.712Z,99423.27
2023-01-19T12:17:46.925Z,99427.27
2023-01-19T12:20:22.872Z,99428.88
2023-01-19T12:23:13.448Z,99423.02
2023-01-19T12:25:47.340Z,99418.19
2023-01-19T12:28:16.105Z,99415.86
2023-01-19T12:30:43.186Z,99413.23
2023-01-19T12:33:32.614Z,99411.96
2023-01-19T12:36:39.664Z,99408.73
2023-01-19T12:39:17.515Z,99409.38
2023-01-19T12:41:45.202Z,99411.19
2023-01-19T12:44:11.577Z,99407.77
2023-01-19T12:46:40.526Z,99409.29
2023-01-19T12:49:13.748Z,99407.23
2023-01-19T12:51:40.748Z,99411.39
2023-01-19T12:54:21.093Z,99409.59
2023-01-19T12:56:48.622Z,99405.05
2023-01-19T12:59:24.799Z,99406.47
2023-01-19T13:02:19.400Z,99407.69
2023-01-19T13:05:11.769Z,99406.30
2023-01-19T13:08:06.070Z,99408.30
2023-01-19T13:11:09.888Z,99404.45
2023-01-19T13:13:44.470Z,99407.40
2023-01-19T13:16:20.294Z,99405.39
2023-01-19T13:18:58.051Z,99402.02
2023-01-19T13:21:33.967Z,99400.39
2023-01-19T13:24:00.350Z,99401.10
2023-01-19T13:26:34.783Z,99400.61
2023-01-19T13:29:19.401Z,99392.86
2023-01-19T13:31:48.344Z,99399.09
2023-01-19T13:34:18.976Z,99407.73
2023-01-19T13:36:50.097Z,99411.14
2023-01-19T13:39:28.192Z,99417.20
2023-01-19T13:41:59.503Z,99420.50
2023-01-19T13:44:35.712Z,99426.66
2023-01-19T13:47:04.596Z,99433.25
2023-01-19T13:49:36.156Z,99437.70
2023-01-19T13:52:13.193Z,99438.07
2023-01-19T13:55:04.232Z,99442.12
2023-01-19T13:57:52.099Z,99440.88
2023-01-19T14:00:30.091Z,99439.11
2023-01-19T14:03:00.512Z,99440.67
2023-01-19T14:05:27.009Z,99440.42
2023-01-19T14:08:10.366Z,99436.32
2023-01-19T14:10:41.315Z,99432.83
2023-01-19T14:13:22.175Z,99423.32
2023-01-19T14:15:50.316Z,99419.41
2023-01-19T14:18:16.699Z,99425.25
2023-01-19T14:21:06.879Z,99426.45
2023-01-19T14:23:58.638Z,99428.21
2023-01-19T14:26:37.328Z,99428.89
2023-01-19T14:29:09.611Z,99425.98
2023-01-19T14:31:44.804Z,99428.91
2023-01-19T14:34:33.249Z,99428.55
2023-01-19T14:37:01.389Z,99428.10
2023-01-19T14:39:31.666Z,99427.78
2023-01-19T14:42:02.552Z,99424.56
2023-01-19T14:44:33.169Z,99424.30
2023-01-19T14:47:00.137Z,99424.34
2023-01-19T14:49:33.916Z,99424.93
2023-01-19T14:52:03.302Z,99432.50
2023-01-19T14:54:40.296Z,99437.90
2023-01-19T14:57:12.385Z,99449.66
2023-01-19T14:59:39.146Z,99459.55
2023-01-19T15:02:05.843Z,99464.63
2023-01-19T15:04:32.296Z,99465.80
2023-01-19T15:06:58.631Z,99468.20
2023-01-19T15:09:24.914Z,99465.90
2023-01-19T15:11:52.262Z,99461.88
2023-01-19T15:14:20.083Z,99459.24
2023-01-19T15:16:47.077Z,99451.45
2023-01-19T15:19:15.173Z,99462.39
2023-01-19T15:21:42.005Z,99467.02
2023-01-19T15:24:09.573Z,99465.79
2023-01-19T15:26:37.741Z,99466.47
2023-01-19T15:29:23.012Z,99464.55
2023-01-19T15:31:50.624Z,99469.36
2023-01-19T15:34:16.954Z,99463.23
2023-01-19T15:36:43.463Z,99465.64
2023-01-19T15:39:10.456Z,99471.71
2023-01-19T15:41:39.478Z,99468.20
2023-01-19T15:44:06.575Z,99469.25
2023-01-19T15:46:33.412Z,99469.86
2023-01-19T15:48:59.851Z,99473.80
2023-01-19T15:51:26.795Z,99473.89
2023-01-19T15:53:54.045Z,99475.46
2023-01-19T15:56:26.195Z,99473.08
2023-01-19T15:58:53.627Z,99472.94
2023-01-19T16:01:31.710Z,99474.27
2023-01-19T16:04:00.740Z,99474.98
2023-01-19T16:06:28.305Z,99474.11
2023-01-19T16:08:59.113Z,99471.80
2023-01-19T16:11:25.961Z,99473.23
2023-01-19T16:13:52.374Z,99478.30
2023-01-19T16:16:22.907Z,99477.52
2023-01-19T16:18:49.653Z,99485.14
2023-01-19T16:21:16.027Z,99485.36
2023-01-19T16:23:42.308Z,99486.52
2023-01-19T16:26:33.621Z,99485.42
2023-01-19T16:29:02.264Z,99483.48
2023-01-19T16:31:29.119Z,99487.45
2023-01-19T16:33:55.628Z,99493.69
2023-01-19T16:36:31.192Z,99492.63
2023-01-19T16:39:02.100Z,99498.48
2023-01-19T16:41:28.925Z,99495.27
2023-01-19T16:43:56.609Z,99491.52
2023-01-19T16:46:26.140Z,99487.45
2023-01-19T16:48:53.030Z,99488.14
2023-01-19T16:51:19.355Z,99490.45
2023-01-19T16:53:48.212Z,99490.80
2023-01-19T16:56:14.583Z,99489.85
2023-01-19T16:58:41.777Z,99494.09
2023-01-19T17:01:17.236Z,99491.41
2023-01-19T17:07:12.677Z,99487.48
2023-01-19T17:09:40.334Z,99489.58
2023-01-19T17:12:09.291Z,99490.05
2023-01-19T17:14:38.383Z,99485.23
2023-01-19T17:17:09.415Z,99483.52
2023-01-19T17:19:37.148Z,99478.34
2023-01-19T17:22:04.945Z,99476.27
2023-01-19T17:24:33.041Z,99476.16
2023-01-19T17:27:00.834Z,99476.55
2023-01-19T17:29:28.643Z,99477.39
2023-01-19T17:31:56.308Z,99480.75
2023-01-19T17:34:23.970Z,99479.21
2023-01-19T17:36:51.766Z,99477.54
2023-01-19T17:39:19.499Z,99476.22
2023-01-19T17:41:50.098Z,99479.27
2023-01-19T17:44:17.966Z,99476.77
2023-01-19T17:46:45.652Z,99482.99
2023-01-19T17:49:13.405Z,99480.17
2023-01-19T17:51:41.213Z,99477.75
2023-01-19T17:54:10.686Z,99473.59
2023-01-19T17:56:41.147Z,99468.44
2023-01-19T17:59:08.922Z,99467.79
2023-01-19T18:01:40.144Z,99464.36
2023-01-19T18:04:09.128Z,99473.20
2023-01-19T18:06:38.230Z,99475.06
2023-01-19T18:09:08.813Z,99477.77
2023-01-19T18:11:36.764Z,99480.46
2023-01-19T18:14:05.426Z,99482.98
2023-01-19T18:16:33.294Z,99483.46
2023-01-19T18:19:01.074Z,99483.45
2023-01-19T18:21:30.448Z,99485.67
2023-01-19T18:24:01.747Z,99483.58
2023-01-19T18:26:31.572Z,99483.09
2023-01-19T18:28:59.569Z,99484.36
2023-01-19T18:31:27.837Z,99486.61
2023-01-19T18:33:55.700Z,99485.36
2023-01-19T18:36:23.500Z,99481.54
2023-01-19T18:38:51.622Z,99479.64
2023-01-19T18:41:21.280Z,99477.98
2023-01-19T18:43:49.679Z,99477.84
2023-01-19T18:46:17.962Z,99483.00
2023-01-19T18:48:46.210Z,99485.11
2023-01-19T18:51:15.865Z,99482.73
2023-01-19T18:53:44.955Z,99484.16
2023-01-19T18:56:15.658Z,99483.64
2023-01-19T18:58:44.322Z,99487.86
2023-01-19T19:01:27.388Z,99487.77
2023-01-19T19:03:56.282Z,99491.00
2023-01-19T19:06:26.954Z,99491.64
2023-01-19T19:08:57.232Z,99493.95
2023-01-19T19:11:26.449Z,99491.02
2023-01-19T19:13:56.167Z,99492.98
2023-01-19T19:16:24.159Z,99495.33
2023-01-19T19:18:52.139Z,99496.38
2023-01-19T19:21:21.525Z,99500.63
2023-01-19T19:23:54.654Z,99501.08
2023-01-19T19:26:24.301Z,99505.02
2023-01-19T19:28:52.026Z,99504.23
2023-01-19T19:31:22.140Z,99507.84
2023-01-19T19:33:51.012Z,99507.63
2023-01-19T19:36:20.155Z,99512.34
2023-01-19T19:38:49.284Z,99512.38
2023-01-19T19:41:20.477Z,99514.27
2023-01-19T19:43:48.857Z,99517.56
2023-01-19T19:46:19.997Z,99516.58
2023-01-19T19:48:48.553Z,99519.63
2023-01-19T19:51:22.330Z,99521.50
2023-01-19T19:53:51.827Z,99523.95
2023-01-19T19:56:22.005Z,99526.64
2023-01-19T19:58:50.921Z,99531.35
2023-01-19T20:01:21.689Z,99534.52
2023-01-19T20:03:49.909Z,99534.41
2023-01-19T20:06:23.049Z,99535.20
2023-01-19T20:08:55.405Z,99539.71
2023-01-19T20:11:27.836Z,99543.92
2023-01-19T20:13:55.539Z,99543.06
2023-01-19T20:16:24.526Z,99544.85
2023-01-19T20:18:56.832Z,99547.85
2023-01-19T20:21:27.623Z,99546.96
2023-01-19T20:23:58.883Z,99548.06
2023-01-19T20:26:30.731Z,99547.76
2023-01-19T20:29:00.351Z,99550.95
2023-01-19T20:31:31.088Z,99550.48
2023-01-19T20:34:01.630Z,99553.27
2023-01-19T20:36:29.621Z,99550.06
2023-01-19T20:38:58.524Z,99551.20
2023-01-19T20:41:27.249Z,99554.02
2023-01-19T20:43:54.998Z,99558.40
2023-01-19T20:46:22.966Z,99558.74
2023-01-19T20:48:53.092Z,99560.34
2023-01-19T20:51:20.848Z,99562.14
2023-01-19T20:53:48.538Z,99566.30
2023-01-19T20:56:17.344Z,99564.31
2023-01-19T20:58:47.970Z,99564.45
2023-01-19T21:01:22.230Z,99564.92
2023-01-19T21:03:50.636Z,99560.91
2023-01-19T21:06:19.899Z,99561.52
2023-01-19T21:08:49.826Z,99566.42
2023-01-19T21:11:20.881Z,99573.52
2023-01-19T21:13:50.538Z,99582.80
2023-01-19T21:16:18.284Z,99586.45
2023-01-19T21:18:45.979Z,99590.80
2023-01-19T21:21:29.079Z,99594.66
2023-01-19T21:23:58.885Z,99601.50
2023-01-19T21:26:26.788Z,99605.20
2023-01-19T21:28:57.376Z,99609.85
2023-01-19T21:31:27.785Z,99610.55
2023-01-19T21:33:57.650Z,99611.83
2023-01-19T21:36:26.351Z,99620.59
2023-01-19T21:39:00.064Z,99629.11
2023-01-19T21:41:30.198Z,99632.81
2023-01-19T21:44:00.387Z,99637.02
2023-01-19T21:46:29.618Z,99644.10
2023-01-19T21:49:02.185Z,99643.48
2023-01-19T21:51:33.611Z,99642.16
2023-01-19T21:54:03.391Z,99644.98
2023-01-19T21:56:31.290Z,99646.27
2023-01-19T21:59:02.239Z,99648.77
2023-01-19T22:01:31.532Z,99648.75
2023-01-19T22:04:00.122Z,99653.53
2023-01-19T22:06:28.193Z,99656.98
2023-01-19T22:08:57.952Z,99658.90
2023-01-19T22:11:25.713Z,99658.77
2023-01-19T22:13:54.017Z,99665.34
2023-01-19T22:16:23.277Z,99665.49
2023-01-19T22:18:57.491Z,99671.58
2023-01-19T22:21:28.340Z,99666.75
2023-01-19T22:23:59.088Z,99665.20
2023-01-19T22:26:28.666Z,99665.66
2023-01-19T22:28:59.402Z,99662.85
2023-01-19T22:31:28.544Z,99665.16
2023-01-19T22:33:56.456Z,99662.19
2023-01-19T22:36:29.851Z,99666.85
2023-01-19T22:39:00.306Z,99670.36
2023-01-19T22:41:36.596Z,99674.20
2023-01-19T22:44:07.445Z,99674.95
2023-01-19T22:46:37.354Z,99675.23
2023-01-19T22:49:07.492Z,99682.11
2023-01-19T22:51:36.221Z,99688.73
2023-01-19T22:54:04.866Z,99693.65
2023-01-19T22:56:35.150Z,99695.05
2023-01-19T22:59:04.100Z,99693.22
2023-01-19T23:01:34.848Z,99692.16
2023-01-19T23:04:04.527Z,99692.40
2023-01-19T23:06:34.900Z,99690.17
2023-01-19T23:09:06.653Z,99691.92
2023-01-19T23:11:40.222Z,99695.91
2023-01-19T23:14:12.041Z,99706.42
2023-01-19T23:16:39.857Z,99712.73
2023-01-19T23:19:07.654Z,99716.45
2023-01-19T23:21:36.968Z,99720.42
2023-01-19T23:24:05.122Z,99720.80
2023-01-19T23:26:38.160Z,99722.48
2023-01-19T23:29:17.983Z,99723.16
2023-01-19T23:31:48.260Z,99725.24
2023-01-19T23:34:16.801Z,99729.65
2023-01-19T23:36:45.048Z,99728.48
2023-01-19T23:39:19.302Z,99734.06
2023-01-19T23:41:47.904Z,99733.19
2023-01-19T23:44:17.161Z,99741.99
2023-01-19T23:46:45.809Z,99744.00
2023-01-19T23:49:13.632Z,99744.02
2023-01-19T23:51:41.814Z,99755.70
2023-01-19T23:54:09.527Z,99759.19
2023-01-19T23:56:38.337Z,99765.16
2023-01-19T23:59:08.814Z,99767.52
